FW8443 Weather Reports


Display with metric or nautical units.
time (UTC)temp
F
wind
direction
speed
MPH
gust
MPH
rain 1hr
in
rain 24hr
in
rain mn
in
humidity
%
barometer
mb
20260506223036 58 133 2.0 9.0 0.01 0.26 0.26 94 1009.3
20260506221542 58 227 3.0 9.0 0.00 0.25 0.25 94 1009.4
20260506220046 58 128 2.0 8.0 0.00 0.25 0.25 93 1009.6
20260506214535 58 139 2.0 10.0 0.02 0.25 0.25 93 1009.4
20260506213036 58 152 3.0 10.0 0.04 0.25 0.25 93 1009.4
20260506211542 58 161 4.0 9.0 0.07 0.25 0.25 93 1009.6
20260506210035 58 211 2.0 10.0 0.07 0.25 0.25 93 1009.7
20260506204538 58 122 3.0 10.0 0.05 0.23 0.23 93 1009.9
20260506203033 58 122 2.0 7.0 0.03 0.20 0.20 93 1010.0
20260506201534 58 0 3.0 9.0 0.01 0.18 0.18 92 1010.1
20260506200035 58 221 3.0 8.0 0.01 0.18 0.18 92 1010.1
20260506194538 58 94 2.0 11.0 0.02 0.18 0.18 92 1010.3
20260506193036 58 125 1.0 11.0 0.02 0.17 0.17 92 1010.4
20260506191535 58 135 4.0 11.0 0.03 0.17 0.17 92 1010.4
20260506190036 58 120 4.0 12.0 0.04 0.17 0.17 92 1010.7
20260506184531 58 103 2.0 10.0 0.05 0.16 0.16 92 1011.0
20260506183031 58 227 3.0 10.0 0.08 0.15 0.15 91 1011.0
20260506181537 59 165 1.0 5.0 0.13 0.14 0.14 91 1010.7
20260506180034 59 195 1.0 9.0 0.13 0.13 0.13 90 1010.9
20260506174537 60 138 3.0 10.0 0.11 0.11 0.11 89 1011.3
20260506173034 61 142 1.0 10.0 0.07 0.07 0.07 86 1011.6
20260506171532 62 70 2.0 13.0 0.00 0.00 0.00 82 1011.8
20260506170032 64 191 4.0 12.0 0.00 0.00 0.00 77 1012.1
20260506164536 65 76 3.0 9.0 0.00 0.00 0.00 75 1011.9
20260506163035 66 137 3.0 12.0 0.00 0.00 0.00 75 1011.8
20260506161538 65 149 5.0 13.0 0.00 0.00 0.00 74 1012.0
20260506160032 66 200 5.0 14.0 0.00 0.00 0.00 73 1012.2
20260506154539 66 108 5.0 13.0 0.00 0.00 0.00 73 1012.4
20260506153042 67 317 5.0 16.0 0.00 0.00 0.00 71 1012.1
20260506151534 67 66 3.0 12.0 0.00 0.00 0.00 72 1012.2
20260506150043 67 169 4.0 16.0 0.00 0.00 0.00 72 1012.2
20260506144553 67 119 3.0 12.0 0.00 0.00 0.00 73 1012.4
20260506143046 67 165 4.0 15.0 0.00 0.00 0.00 73 1012.5
20260506141538 66 92 5.0 14.0 0.00 0.00 0.00 74 1012.5
20260506140053 65 94 4.0 15.0 0.00 0.00 0.00 76 1012.7
20260506134537 64 138 4.0 14.0 0.00 0.00 0.00 76 1012.4
20260506133037 64 116 5.0 13.0 0.00 0.00 0.00 77 1012.3
20260506131541 64 180 3.0 11.0 0.00 0.00 0.00 78 1012.4
20260506130041 63 151 5.0 15.0 0.00 0.00 0.00 79 1012.6
20260506124536 63 186 5.0 16.0 0.00 0.00 0.00 80 1013.1
20260506123039 62 145 5.0 13.0 0.00 0.00 0.00 80 1013.1
20260506121534 61 142 4.0 10.0 0.00 0.00 0.00 82 1013.1
20260506120036 61 181 3.0 10.0 0.00 0.00 0.00 82 1013.2
20260506114535 60 170 4.0 15.0 0.00 0.00 0.00 83 1013.1
20260506113039 60 169 5.0 14.0 0.00 0.00 0.00 83 1012.8
20260506111536 59 126 3.0 14.0 0.00 0.00 0.00 84 1013.3
20260506110039 59 148 3.0 12.0 0.00 0.00 0.00 84 1013.3
20260506104533 59 138 3.0 11.0 0.00 0.00 0.00 84 1013.2
20260506103036 58 131 4.0 12.0 0.00 0.00 0.00 85 1013.0
20260506101536 58 88 2.0 8.0 0.00 0.00 0.00 84 1013.0
20260506100037 58 169 6.0 11.0 0.00 0.00 0.00 84 1012.9
20260506094534 58 132 4.0 12.0 0.00 0.00 0.00 84 1012.9
20260506093035 59 90 3.0 9.0 0.00 0.00 0.00 83 1013.0
20260506091530 59 113 5.0 13.0 0.00 0.00 0.00 83 1012.9
20260506090040 59 161 3.0 12.0 0.00 0.00 0.00 83 1012.8
20260506084538 59 123 5.0 11.0 0.00 0.00 0.00 82 1013.0
20260506083033 59 144 3.0 9.0 0.00 0.00 0.00 82 1013.0
20260506081531 59 149 4.0 13.0 0.00 0.00 0.00 82 1013.0
20260506073037 59 113 2.0 15.0 0.00 0.00 0.00 80 1013.1
20260506071534 59 115 4.0 11.0 0.00 0.00 0.00 80 1013.1
20260506061543 60 127 6.0 14.0 0.00 0.00 0.00 79 1012.8
20260506044546 62 142 4.0 14.0 0.00 0.00 0.00 76 1013.7
20260506043035 62 96 5.0 14.0 0.00 0.00 0.00 75 1013.8
20260506041539 63 144 4.0 12.0 0.00 0.00 0.00 74 1013.7
20260506040035 63 148 5.0 13.0 0.00 0.00 0.00 73 1013.7
20260506034543 63 107 5.0 18.0 0.00 0.00 0.00 72 1013.6
20260506033033 63 131 4.0 16.0 0.00 0.00 0.00 71 1013.7
20260506031543 63 100 6.0 18.0 0.00 0.00 0.00 70 1013.6
20260506030035 64 117 5.0 18.0 0.00 0.00 0.00 69 1013.6
20260506024536 64 192 8.0 18.0 0.00 0.00 0.00 69 1013.4
20260506023031 63 164 5.0 13.0 0.00 0.00 0.00 70 1013.5
20260506021533 63 197 6.0 14.0 0.00 0.00 0.00 70 1013.5
20260506020036 63 157 4.0 15.0 0.00 0.00 0.00 70 1013.5
20260506014536 63 102 6.0 15.0 0.00 0.00 0.00 69 1013.2
20260506013035 64 153 5.0 17.0 0.00 0.00 0.00 68 1013.4
20260506011541 64 33 4.0 17.0 0.00 0.00 0.00 68 1013.2
20260506010049 64 236 5.0 15.0 0.00 0.00 0.00 67 1012.9
20260506004535 64 121 3.0 10.0 0.00 0.00 0.00 66 1013.0
20260506003035 65 149 5.0 16.0 0.00 0.00 0.00 65 1012.5
20260506001535 65 128 6.0 14.0 0.00 0.00 0.00 65 1012.2
20260506000034 66 112 5.0 12.0 0.00 0.00 0.00 65 1012.1
20260505234534 66 146 4.0 13.0 0.00 0.00 0.00 65 1011.9
20260505233044 67 169 6.0 25.0 0.00 0.00 0.00 63 1011.7
20260505231535 68 125 5.0 17.0 0.00 0.00 0.00 62 1011.4
20260505230039 69 146 6.0 13.0 0.00 0.00 0.00 61 1011.2
20260505224537 69 103 6.0 14.0 0.00 0.00 0.00 60 1011.0